Time;durP1;ratioP1;P1;durP2;ratioP2;P2;SDS_P1;SDS_P2;PMS_P1;PMS_P2;Temp;Humidity;BMP_temperature;BMP_pressure;BME280_temperature;BME280_humidity;BME280_pressure;Samples;Min_cycle;Max_cycle;Signal;HPM_P1;HPM_P2
2024/01/12 00:01:09;;;;;;;10.88;5.25;;;;;;;;;;5130177;28;20082;-70
2024/01/12 00:03:36;;;;;;;11.48;5.95;;;;;;;;;;5130503;28;20070;-71
2024/01/12 00:06:03;;;;;;;11.23;5.53;;;;;;;;;;5130402;28;20055;-70
2024/01/12 00:08:32;;;;;;;11.15;5.82;;;;;;;;;;5129976;28;20055;-70
2024/01/12 00:10:59;;;;;;;10.68;5.65;;;;;;;;;;5130437;28;20130;-70
2024/01/12 00:13:25;;;;;;;11.45;5.75;;;;;;;;;;5130322;28;20613;-70
2024/01/12 00:15:52;;;;;;;10.52;5.18;;;;;;;;;;5133253;27;20043;-68
2024/01/12 00:18:19;;;;;;;12.30;5.80;;;;;;;;;;5134029;27;20502;-70
2024/01/12 00:20:46;;;;;;;10.43;5.25;;;;;;;;;;5134449;27;20059;-70
2024/01/12 00:23:13;;;;;;;10.60;5.15;;;;;;;;;;5134172;27;20043;-69
2024/01/12 00:25:39;;;;;;;10.75;5.63;;;;;;;;;;5134230;27;20050;-69
2024/01/12 00:28:07;;;;;;;10.98;5.63;;;;;;;;;;5133924;27;20491;-69
2024/01/12 00:30:36;;;;;;;12.10;5.68;;;;;;;;;;5134580;27;20090;-69
2024/01/12 00:33:05;;;;;;;11.57;5.60;;;;;;;;;;5134062;27;20498;-70
2024/01/12 00:35:32;;;;;;;9.32;4.97;;;;;;;;;;5134377;27;20049;-70
2024/01/12 00:38:00;;;;;;;11.05;5.72;;;;;;;;;;5133896;27;20039;-69
2024/01/12 00:40:26;;;;;;;10.38;5.50;;;;;;;;;;5133777;27;20057;-70
2024/01/12 00:42:53;;;;;;;10.77;5.43;;;;;;;;;;5133778;27;20402;-70
2024/01/12 00:45:20;;;;;;;11.55;5.45;;;;;;;;;;5133969;27;20058;-69
2024/01/12 00:47:47;;;;;;;10.15;5.18;;;;;;;;;;5133654;27;20069;-70
2024/01/12 00:50:14;;;;;;;8.85;4.60;;;;;;;;;;5133924;27;20084;-69
2024/01/12 00:52:41;;;;;;;9.57;4.88;;;;;;;;;;5133723;27;20576;-69
2024/01/12 00:55:08;;;;;;;9.98;4.70;;;;;;;;;;5133835;27;20130;-69
2024/01/12 00:57:34;;;;;;;8.60;4.85;;;;;;;;;;5133764;27;20043;-69
2024/01/12 01:00:01;;;;;;;9.77;4.82;;;;;;;;;;5133362;27;20051;-69
2024/01/12 01:02:28;;;;;;;8.93;5.10;;;;;;;;;;5133377;27;20054;-69
2024/01/12 01:04:55;;;;;;;8.32;4.82;;;;;;;;;;5133273;27;20133;-69
2024/01/12 01:07:22;;;;;;;8.30;4.47;;;;;;;;;;5133202;27;20043;-69
2024/01/12 01:09:49;;;;;;;9.55;5.05;;;;;;;;;;5133478;27;20047;-69
2024/01/12 01:12:16;;;;;;;10.07;5.10;;;;;;;;;;5134574;27;20050;-69
2024/01/12 01:14:42;;;;;;;9.68;5.13;;;;;;;;;;5133834;27;20418;-69
2024/01/12 01:17:09;;;;;;;12.00;5.13;;;;;;;;;;5133552;27;20047;-69
2024/01/12 01:19:36;;;;;;;11.52;5.65;;;;;;;;;;5133203;27;20059;-69
2024/01/12 01:22:03;;;;;;;12.35;5.78;;;;;;;;;;5133327;27;20051;-69
2024/01/12 01:24:31;;;;;;;9.77;5.15;;;;;;;;;;5132819;27;20049;-69
2024/01/12 01:26:58;;;;;;;10.90;5.65;;;;;;;;;;5132234;27;20070;-69
2024/01/12 01:29:24;;;;;;;12.40;5.70;;;;;;;;;;5132725;27;20529;-69
2024/01/12 01:31:51;;;;;;;12.23;6.35;;;;;;;;;;5133324;27;20092;-69
2024/01/12 01:34:18;;;;;;;11.52;6.07;;;;;;;;;;5133013;27;20047;-69
2024/01/12 01:36:45;;;;;;;12.38;5.82;;;;;;;;;;5132931;27;20044;-69
2024/01/12 01:39:12;;;;;;;12.10;5.97;;;;;;;;;;5132476;27;20525;-69
2024/01/12 01:41:39;;;;;;;12.77;6.50;;;;;;;;;;5133037;27;20406;-69
2024/01/12 01:44:06;;;;;;;10.35;5.40;;;;;;;;;;5132643;27;20360;-69
2024/01/12 01:46:33;;;;;;;11.43;5.88;;;;;;;;;;5132677;27;20046;-69
2024/01/12 01:48:59;;;;;;;11.15;5.63;;;;;;;;;;5132414;27;20414;-69
2024/01/12 01:51:26;;;;;;;10.68;5.40;;;;;;;;;;5132898;27;20507;-69
2024/01/12 01:53:53;;;;;;;9.70;5.10;;;;;;;;;;5132508;27;20081;-69
2024/01/12 01:56:22;;;;;;;10.75;4.80;;;;;;;;;;5132849;27;20038;-69
2024/01/12 01:58:50;;;;;;;10.63;5.22;;;;;;;;;;5132088;27;20487;-69
2024/01/12 02:01:18;;;;;;;10.70;5.47;;;;;;;;;;5132435;27;20075;-69
2024/01/12 02:03:45;;;;;;;9.65;5.22;;;;;;;;;;5132470;27;20069;-70
2024/01/12 02:06:12;;;;;;;11.35;5.65;;;;;;;;;;5132155;27;20043;-68
2024/01/12 02:08:39;;;;;;;11.15;5.25;;;;;;;;;;5131874;27;20059;-70
2024/01/12 02:11:06;;;;;;;10.40;5.47;;;;;;;;;;5132147;27;20494;-70
2024/01/12 02:13:33;;;;;;;11.43;5.43;;;;;;;;;;5132182;27;20483;-70
2024/01/12 02:16:00;;;;;;;10.63;5.68;;;;;;;;;;5132204;27;20175;-69
2024/01/12 02:18:27;;;;;;;11.50;5.57;;;;;;;;;;5132131;27;20047;-70
2024/01/12 02:20:57;;;;;;;10.93;5.15;;;;;;;;;;5131896;27;20131;-70
2024/01/12 02:23:24;;;;;;;;;;;;;;;;;;5132565;27;20039;-68
2024/01/12 02:25:51;;;;;;;10.05;4.68;;;;;;;;;;5131615;27;20408;-68
2024/01/12 02:28:18;;;;;;;10.73;5.43;;;;;;;;;;5131633;27;20410;-70
2024/01/12 02:30:46;;;;;;;11.10;5.72;;;;;;;;;;5131751;27;20051;-70
2024/01/12 02:33:13;;;;;;;11.75;5.40;;;;;;;;;;5132009;27;20108;-70
2024/01/12 02:35:40;;;;;;;10.82;5.60;;;;;;;;;;5132052;27;20043;-70
2024/01/12 02:38:06;;;;;;;9.00;4.75;;;;;;;;;;5131626;27;20043;-69
2024/01/12 02:40:33;;;;;;;11.00;5.43;;;;;;;;;;5131649;27;20043;-69
2024/01/12 02:43:01;;;;;;;10.55;4.93;;;;;;;;;;5131777;27;20058;-70
2024/01/12 02:45:28;;;;;;;13.23;4.85;;;;;;;;;;5131344;27;20636;-69
2024/01/12 02:47:54;;;;;;;9.93;4.95;;;;;;;;;;5131399;27;20043;-69
2024/01/12 02:50:22;;;;;;;11.70;5.85;;;;;;;;;;5131492;27;20051;-70
2024/01/12 02:52:49;;;;;;;12.63;6.60;;;;;;;;;;5131591;27;20121;-69
2024/01/12 02:55:15;;;;;;;11.73;5.75;;;;;;;;;;5131224;27;20043;-69
2024/01/12 02:57:42;;;;;;;13.15;6.50;;;;;;;;;;5131483;27;20054;-69
2024/01/12 03:00:10;;;;;;;12.85;6.03;;;;;;;;;;5130888;27;20054;-69
2024/01/12 03:02:36;;;;;;;13.07;6.60;;;;;;;;;;5131058;27;20065;-69
2024/01/12 03:05:04;;;;;;;11.98;5.95;;;;;;;;;;5131047;27;20050;-69
2024/01/12 03:07:31;;;;;;;13.82;6.57;;;;;;;;;;5130986;27;20055;-69
2024/01/12 03:09:58;;;;;;;11.77;5.75;;;;;;;;;;5130633;27;20058;-70
2024/01/12 03:12:26;;;;;;;12.82;6.78;;;;;;;;;;5131209;27;20061;-69
2024/01/12 03:14:53;;;;;;;14.00;6.38;;;;;;;;;;5131046;27;20507;-70
2024/01/12 03:17:20;;;;;;;14.88;7.40;;;;;;;;;;5131064;27;20043;-68
2024/01/12 03:19:47;;;;;;;14.57;7.20;;;;;;;;;;5130554;27;20039;-69
2024/01/12 03:22:14;;;;;;;14.30;7.22;;;;;;;;;;5131106;27;20069;-70
2024/01/12 03:24:41;;;;;;;14.55;7.45;;;;;;;;;;5130458;27;20129;-68
2024/01/12 03:27:07;;;;;;;16.35;7.35;;;;;;;;;;5131208;27;20039;-69
2024/01/12 03:29:34;;;;;;;15.38;7.43;;;;;;;;;;5130681;27;20128;-68
2024/01/12 03:32:01;;;;;;;14.55;7.00;;;;;;;;;;5130850;27;20415;-69
2024/01/12 03:34:28;;;;;;;13.18;6.65;;;;;;;;;;5112803;27;20202;-69
2024/01/12 03:36:55;;;;;;;14.18;7.05;;;;;;;;;;5130859;27;20047;-70
2024/01/12 03:39:21;;;;;;;14.85;7.22;;;;;;;;;;5130687;27;20176;-70
2024/01/12 03:41:48;;;;;;;14.75;7.53;;;;;;;;;;5130851;27;20130;-70
2024/01/12 03:44:15;;;;;;;13.70;6.93;;;;;;;;;;5130821;28;20043;-69
2024/01/12 03:46:42;;;;;;;15.90;8.15;;;;;;;;;;5130580;28;20043;-70
2024/01/12 03:49:08;;;;;;;15.98;7.80;;;;;;;;;;5130566;27;20039;-69
2024/01/12 03:51:35;;;;;;;16.00;7.85;;;;;;;;;;5134482;27;20114;-69
2024/01/12 03:54:02;;;;;;;17.20;8.20;;;;;;;;;;5134725;27;20209;-69
2024/01/12 03:56:29;;;;;;;17.92;8.60;;;;;;;;;;5135072;27;20140;-69
2024/01/12 03:58:56;;;;;;;16.73;8.40;;;;;;;;;;5134969;27;20062;-69
2024/01/12 04:01:23;;;;;;;18.80;8.35;;;;;;;;;;5134204;27;20047;-69
2024/01/12 04:03:49;;;;;;;17.25;8.50;;;;;;;;;;5134595;27;20092;-69
2024/01/12 04:06:18;;;;;;;19.23;8.68;;;;;;;;;;5135011;27;20523;-69
2024/01/12 04:08:45;;;;;;;17.90;8.15;;;;;;;;;;5116926;27;20047;-69
2024/01/12 04:11:22;;;;;;;16.85;8.68;;;;;;;;;;5134216;27;20043;-69
2024/01/12 04:13:50;;;;;;;18.20;8.50;;;;;;;;;;5134680;27;20078;-69
2024/01/12 04:16:17;;;;;;;19.35;9.20;;;;;;;;;;5134562;27;20040;-69
2024/01/12 04:18:44;;;;;;;18.95;8.48;;;;;;;;;;5134235;27;20070;-69
2024/01/12 04:21:12;;;;;;;18.75;9.23;;;;;;;;;;5134252;27;20043;-69
2024/01/12 04:23:39;;;;;;;20.92;9.32;;;;;;;;;;5134007;27;20047;-69
2024/01/12 04:26:06;;;;;;;21.67;9.68;;;;;;;;;;5134004;27;20058;-69
2024/01/12 04:28:34;;;;;;;21.25;10.65;;;;;;;;;;5134425;27;20043;-69
2024/01/12 04:31:02;;;;;;;22.27;10.80;;;;;;;;;;5133830;27;20058;-69
2024/01/12 04:33:33;;;;;;;23.95;10.82;;;;;;;;;;5134210;27;20051;-69
2024/01/12 04:36:00;;;;;;;24.63;10.95;;;;;;;;;;5133947;27;20047;-69
2024/01/12 04:38:27;;;;;;;23.25;11.18;;;;;;;;;;5134289;27;20043;-69
2024/01/12 04:40:54;;;;;;;24.08;11.05;;;;;;;;;;5133818;27;20047;-69
2024/01/12 04:43:22;;;;;;;26.13;11.48;;;;;;;;;;5134008;27;20062;-69
2024/01/12 04:45:49;;;;;;;22.40;10.32;;;;;;;;;;5134011;27;20039;-69
2024/01/12 04:48:15;;;;;;;22.80;10.82;;;;;;;;;;5133715;27;20054;-69
2024/01/12 04:50:42;;;;;;;22.70;10.35;;;;;;;;;;5133707;27;20059;-69
2024/01/12 04:53:09;;;;;;;21.95;10.00;;;;;;;;;;5134170;27;20043;-69
2024/01/12 04:55:36;;;;;;;20.92;9.75;;;;;;;;;;5133560;27;20647;-69
2024/01/12 04:58:03;;;;;;;23.52;9.80;;;;;;;;;;5133685;27;20406;-69
2024/01/12 05:00:30;;;;;;;21.20;9.60;;;;;;;;;;5133487;27;20049;-69
2024/01/12 05:02:57;;;;;;;19.05;9.45;;;;;;;;;;5133537;27;20405;-69
2024/01/12 05:05:23;;;;;;;18.27;9.48;;;;;;;;;;5133699;27;20051;-69
2024/01/12 05:07:50;;;;;;;18.98;9.00;;;;;;;;;;5133389;27;20086;-70
2024/01/12 05:10:17;;;;;;;17.35;9.00;;;;;;;;;;5133276;27;20047;-70
2024/01/12 05:12:44;;;;;;;20.15;8.98;;;;;;;;;;5133273;27;20582;-70
2024/01/12 05:15:10;;;;;;;19.55;9.85;;;;;;;;;;5133423;27;20054;-69
2024/01/12 05:17:37;;;;;;;16.48;9.00;;;;;;;;;;5133102;27;20392;-70
2024/01/12 05:20:06;;;;;;;23.13;10.30;;;;;;;;;;5132923;27;20126;-70
2024/01/12 05:22:35;;;;;;;17.93;8.83;;;;;;;;;;5133230;27;20047;-69
2024/01/12 05:25:06;;;;;;;18.33;8.57;;;;;;;;;;5132636;27;20059;-70
2024/01/12 05:27:32;;;;;;;20.08;9.60;;;;;;;;;;5133129;27;20116;-69
2024/01/12 05:29:59;;;;;;;21.33;9.52;;;;;;;;;;5133144;27;20043;-70
2024/01/12 05:32:30;;;;;;;21.50;9.27;;;;;;;;;;5133191;27;20051;-70
2024/01/12 05:34:57;;;;;;;20.88;8.57;;;;;;;;;;5133038;27;20042;-70
2024/01/12 05:37:24;;;;;;;17.67;8.23;;;;;;;;;;5132729;27;20455;-68
2024/01/12 05:39:50;;;;;;;17.17;8.52;;;;;;;;;;5133007;27;20134;-70
2024/01/12 05:42:17;;;;;;;19.85;9.35;;;;;;;;;;5132790;27;20047;-70
2024/01/12 05:44:44;;;;;;;17.42;8.25;;;;;;;;;;5132901;27;20046;-68
2024/01/12 05:47:11;;;;;;;18.98;8.45;;;;;;;;;;5132909;27;20039;-68
2024/01/12 05:49:38;;;;;;;19.23;8.90;;;;;;;;;;5132830;27;20043;-69
2024/01/12 05:52:05;;;;;;;21.55;9.40;;;;;;;;;;5132516;27;20047;-68
2024/01/12 05:54:31;;;;;;;20.05;9.23;;;;;;;;;;5132812;27;20126;-68
2024/01/12 05:56:58;;;;;;;21.48;9.75;;;;;;;;;;5132434;27;20050;-70
2024/01/12 05:59:25;;;;;;;20.15;9.50;;;;;;;;;;5132532;27;20085;-70
2024/01/12 06:01:51;;;;;;;21.33;10.15;;;;;;;;;;5113744;27;20047;-70
2024/01/12 06:04:18;;;;;;;21.10;10.00;;;;;;;;;;5132160;27;20039;-70
2024/01/12 06:06:46;;;;;;;22.42;10.60;;;;;;;;;;5132042;27;20043;-68
2024/01/12 06:09:13;;;;;;;23.73;10.77;;;;;;;;;;5132107;27;20047;-69
2024/01/12 06:11:43;;;;;;;24.75;11.32;;;;;;;;;;5132287;27;20130;-70
2024/01/12 06:14:10;;;;;;;26.30;12.05;;;;;;;;;;5131880;27;20047;-70
2024/01/12 06:16:37;;;;;;;26.20;11.18;;;;;;;;;;5132468;27;20065;-70
2024/01/12 06:19:04;;;;;;;25.13;11.88;;;;;;;;;;5132253;27;20084;-70
2024/01/12 06:21:31;;;;;;;24.17;11.75;;;;;;;;;;5113518;27;20051;-70
2024/01/12 06:23:58;;;;;;;27.00;12.20;;;;;;;;;;5113797;27;20043;-69
2024/01/12 06:26:24;;;;;;;25.95;11.80;;;;;;;;;;5131939;27;20047;-69
2024/01/12 06:28:51;;;;;;;27.23;12.57;;;;;;;;;;5132131;27;20066;-70
2024/01/12 06:31:18;;;;;;;28.63;12.30;;;;;;;;;;5131800;27;20047;-69
2024/01/12 06:33:45;;;;;;;30.02;12.85;;;;;;;;;;5131895;27;20165;-69
2024/01/12 06:36:11;;;;;;;26.67;12.27;;;;;;;;;;5132000;27;20053;-69
2024/01/12 06:38:38;;;;;;;26.40;10.98;;;;;;;;;;5131965;27;20073;-69
2024/01/12 06:41:05;;;;;;;25.50;11.73;;;;;;;;;;5131366;27;20104;-70
2024/01/12 06:43:32;;;;;;;25.80;11.10;;;;;;;;;;5131384;27;20512;-69
2024/01/12 06:45:58;;;;;;;23.45;10.77;;;;;;;;;;5131893;27;20047;-69
2024/01/12 06:48:25;;;;;;;25.63;11.18;;;;;;;;;;5131453;27;20517;-69
2024/01/12 06:50:52;;;;;;;25.63;11.07;;;;;;;;;;5131200;27;20047;-70
2024/01/12 06:53:19;;;;;;;24.73;10.75;;;;;;;;;;5131784;27;20252;-70
2024/01/12 06:55:45;;;;;;;24.13;10.65;;;;;;;;;;5131135;27;20486;-70
2024/01/12 06:58:12;;;;;;;25.58;11.52;;;;;;;;;;5131139;27;20039;-69
2024/01/12 07:00:39;;;;;;;26.73;10.95;;;;;;;;;;5131178;27;20051;-70
2024/01/12 07:03:06;;;;;;;25.80;11.73;;;;;;;;;;5131502;27;20043;-69
2024/01/12 07:05:33;;;;;;;25.70;11.07;;;;;;;;;;5132255;27;20082;-70
2024/01/12 07:08:00;;;;;;;26.67;10.90;;;;;;;;;;5131115;27;20185;-70
2024/01/12 07:10:26;;;;;;;24.83;10.57;;;;;;;;;;5131338;27;20055;-70
2024/01/12 07:12:53;;;;;;;21.80;10.48;;;;;;;;;;5131114;27;20046;-70
2024/01/12 07:15:20;;;;;;;23.95;10.85;;;;;;;;;;5131404;27;20122;-70
2024/01/12 07:17:50;;;;;;;25.10;11.10;;;;;;;;;;5131083;27;20079;-70
2024/01/12 07:20:17;;;;;;;20.67;9.60;;;;;;;;;;5130798;27;20043;-69
2024/01/12 07:22:45;;;;;;;23.45;9.82;;;;;;;;;;5130587;27;20499;-70
2024/01/12 07:25:12;;;;;;;25.38;10.25;;;;;;;;;;5129983;27;20047;-69
2024/01/12 07:27:39;;;;;;;23.33;10.30;;;;;;;;;;5130844;27;20087;-69
2024/01/12 07:30:08;;;;;;;23.58;10.68;;;;;;;;;;5131083;27;20054;-69
2024/01/12 07:32:35;;;;;;;23.38;10.93;;;;;;;;;;5130828;27;20047;-70
2024/01/12 07:35:03;;;;;;;24.10;9.88;;;;;;;;;;5130987;27;20126;-69
2024/01/12 07:37:30;;;;;;;24.27;10.15;;;;;;;;;;5130925;27;20079;-70
2024/01/12 07:39:56;;;;;;;24.85;9.77;;;;;;;;;;5130460;27;20138;-69
2024/01/12 07:42:23;;;;;;;21.15;9.38;;;;;;;;;;5111965;28;20645;-69
2024/01/12 07:44:50;;;;;;;22.58;9.63;;;;;;;;;;5130872;27;20043;-70
2024/01/12 07:47:16;;;;;;;22.40;9.75;;;;;;;;;;5130885;28;20126;-69
2024/01/12 07:49:43;;;;;;;20.55;9.68;;;;;;;;;;5130573;28;20103;-69
2024/01/12 07:52:10;;;;;;;21.23;9.40;;;;;;;;;;5130255;28;20667;-69
2024/01/12 07:54:43;;;;;;;21.33;8.98;;;;;;;;;;5130401;28;20043;-69
2024/01/12 07:57:09;;;;;;;22.05;8.85;;;;;;;;;;5130270;28;20036;-69
2024/01/12 07:59:36;;;;;;;17.92;8.02;;;;;;;;;;5130439;28;20066;-68
2024/01/12 08:02:03;;;;;;;18.52;8.57;;;;;;;;;;5129993;28;20155;-69
2024/01/12 08:04:30;;;;;;;19.88;8.60;;;;;;;;;;5130544;28;20074;-69
2024/01/12 08:06:56;;;;;;;19.27;8.75;;;;;;;;;;5130361;28;20120;-69
2024/01/12 08:09:23;;;;;;;18.95;9.15;;;;;;;;;;5130233;28;20043;-69
2024/01/12 08:11:50;;;;;;;22.77;9.77;;;;;;;;;;5130215;28;20117;-69
2024/01/12 08:14:17;;;;;;;20.38;9.15;;;;;;;;;;5111857;28;20075;-69
2024/01/12 08:16:43;;;;;;;19.60;9.30;;;;;;;;;;5112086;28;20071;-69
2024/01/12 08:19:10;;;;;;;21.52;9.43;;;;;;;;;;5130234;28;20064;-69
2024/01/12 08:21:37;;;;;;;21.65;9.60;;;;;;;;;;5130094;28;20043;-69
2024/01/12 08:24:17;;;;;;;21.48;8.88;;;;;;;;;;5129980;28;20046;-70
2024/01/12 08:26:48;;;;;;;18.63;8.55;;;;;;;;;;5110069;28;20126;-69
2024/01/12 08:29:15;;;;;;;20.13;8.60;;;;;;;;;;5109708;28;20048;-70
2024/01/12 08:31:42;;;;;;;19.95;9.20;;;;;;;;;;5109254;28;20069;-70
2024/01/12 08:34:09;;;;;;;19.60;8.60;;;;;;;;;;5091484;28;20051;-69
2024/01/12 08:36:36;;;;;;;19.98;8.15;;;;;;;;;;5111380;28;20086;-69
2024/01/12 08:39:03;;;;;;;18.83;8.38;;;;;;;;;;5113070;28;20047;-69
2024/01/12 08:41:30;;;;;;;20.30;8.90;;;;;;;;;;5113104;28;20524;-69
2024/01/12 08:43:57;;;;;;;21.52;8.85;;;;;;;;;;5113265;28;20044;-69
2024/01/12 08:46:24;;;;;;;21.08;9.27;;;;;;;;;;5113293;28;20168;-69
2024/01/12 08:48:52;;;;;;;22.23;9.48;;;;;;;;;;5113361;28;20047;-69
2024/01/12 08:51:19;;;;;;;22.23;10.07;;;;;;;;;;5113311;28;20079;-70
2024/01/12 08:53:46;;;;;;;18.52;9.10;;;;;;;;;;5113083;28;20055;-70
2024/01/12 08:56:13;;;;;;;23.58;9.23;;;;;;;;;;5112920;28;20040;-69
2024/01/12 08:58:39;;;;;;;21.08;10.35;;;;;;;;;;5113115;28;20048;-70
2024/01/12 09:01:06;;;;;;;22.88;10.23;;;;;;;;;;5112693;28;20399;-70
2024/01/12 09:03:33;;;;;;;18.38;9.13;;;;;;;;;;5112847;28;20044;-69
2024/01/12 09:06:00;;;;;;;17.08;8.80;;;;;;;;;;5112924;28;20040;-71
2024/01/12 09:08:28;;;;;;;16.80;8.00;;;;;;;;;;5112547;28;20564;-69
2024/01/12 09:10:55;;;;;;;20.80;9.88;;;;;;;;;;5112843;28;20087;-70
2024/01/12 09:13:22;;;;;;;31.20;13.43;;;;;;;;;;5112298;28;20055;-70
2024/01/12 09:15:48;;;;;;;24.02;10.90;;;;;;;;;;5112838;28;20067;-68
2024/01/12 09:18:15;;;;;;;24.63;10.45;;;;;;;;;;5112528;28;20048;-70
2024/01/12 09:20:42;;;;;;;28.98;13.23;;;;;;;;;;5112409;28;20544;-70
2024/01/12 09:23:09;;;;;;;28.95;13.52;;;;;;;;;;5112496;28;20044;-69
2024/01/12 09:25:36;;;;;;;28.13;11.88;;;;;;;;;;5122884;27;20123;-70
2024/01/12 09:28:06;;;;;;;25.35;11.52;;;;;;;;;;5132967;27;20478;-68
2024/01/12 09:30:36;;;;;;;22.60;10.73;;;;;;;;;;5133196;27;20122;-70
2024/01/12 09:33:06;;;;;;;24.02;11.18;;;;;;;;;;5132368;27;20498;-70
2024/01/12 09:35:34;;;;;;;25.52;11.13;;;;;;;;;;5133055;27;20043;-69
2024/01/12 09:38:00;;;;;;;28.80;12.88;;;;;;;;;;5132479;27;20089;-69
2024/01/12 09:40:27;;;;;;;28.13;12.07;;;;;;;;;;5132481;27;20538;-70
2024/01/12 09:42:56;;;;;;;27.52;12.23;;;;;;;;;;5132707;27;20063;-70
2024/01/12 09:45:25;;;;;;;26.85;12.48;;;;;;;;;;5132831;27;20078;-69
2024/01/12 09:47:52;;;;;;;28.17;12.27;;;;;;;;;;5131987;27;20047;-70
2024/01/12 09:50:23;;;;;;;31.45;12.63;;;;;;;;;;5132620;27;20130;-70
2024/01/12 09:52:51;;;;;;;28.65;11.43;;;;;;;;;;5132158;27;20134;-70
2024/01/12 09:55:19;;;;;;;27.60;12.02;;;;;;;;;;5132130;27;20111;-70
2024/01/12 09:57:46;;;;;;;32.67;13.27;;;;;;;;;;5132479;27;20103;-70
2024/01/12 10:00:16;;;;;;;21.17;9.55;;;;;;;;;;5114310;27;20045;-70
2024/01/12 10:02:44;;;;;;;25.95;11.68;;;;;;;;;;5132367;27;20079;-69
2024/01/12 10:05:10;;;;;;;28.13;12.82;;;;;;;;;;5132520;27;20088;-69
2024/01/12 10:07:37;;;;;;;24.40;10.40;;;;;;;;;;5132167;27;20097;-70
2024/01/12 10:10:08;;;;;;;21.48;10.57;;;;;;;;;;5132082;27;20039;-70
2024/01/12 10:12:37;;;;;;;22.05;9.57;;;;;;;;;;5131935;27;20050;-69
2024/01/12 10:15:08;;;;;;;22.92;11.00;;;;;;;;;;5131861;27;20047;-71
2024/01/12 10:17:34;;;;;;;25.35;11.07;;;;;;;;;;5131926;27;20067;-69
2024/01/12 10:20:04;;;;;;;21.85;9.57;;;;;;;;;;5132074;27;20085;-68
2024/01/12 10:22:31;;;;;;;22.90;10.73;;;;;;;;;;5131617;27;20047;-70
2024/01/12 10:24:59;;;;;;;17.90;8.65;;;;;;;;;;5131562;27;20123;-70
2024/01/12 10:27:27;;;;;;;20.67;9.55;;;;;;;;;;5132121;27;20115;-70
2024/01/12 10:29:55;;;;;;;17.48;8.40;;;;;;;;;;5131836;27;20075;-70
2024/01/12 10:32:23;;;;;;;15.90;7.80;;;;;;;;;;5131724;27;20058;-71
2024/01/12 10:34:52;;;;;;;17.00;8.07;;;;;;;;;;5131457;27;20489;-70
2024/01/12 10:37:21;;;;;;;16.73;8.63;;;;;;;;;;5131278;27;20628;-70
2024/01/12 10:39:49;;;;;;;16.00;8.05;;;;;;;;;;5131165;27;20448;-70
2024/01/12 10:42:17;;;;;;;18.10;8.23;;;;;;;;;;5113531;27;20043;-70
2024/01/12 10:44:45;;;;;;;16.48;8.00;;;;;;;;;;5131185;27;20049;-69
2024/01/12 10:47:21;;;;;;;15.68;7.57;;;;;;;;;;5131529;27;20189;-69
2024/01/12 10:50:09;;;;;;;23.15;9.13;;;;;;;;;;5131140;27;20468;-69
2024/01/12 10:52:45;;;;;;;19.10;7.65;;;;;;;;;;5130744;27;20134;-69
2024/01/12 10:55:16;;;;;;;24.60;9.75;;;;;;;;;;5131205;27;20043;-69
2024/01/12 10:57:45;;;;;;;24.60;10.48;;;;;;;;;;5131210;27;20061;-69
2024/01/12 11:00:14;;;;;;;22.25;9.93;;;;;;;;;;5131005;27;20049;-69
2024/01/12 11:02:42;;;;;;;22.55;9.00;;;;;;;;;;5131005;27;20054;-69
2024/01/12 11:05:12;;;;;;;25.65;10.25;;;;;;;;;;5131378;27;20403;-70
2024/01/12 11:07:43;;;;;;;23.85;10.02;;;;;;;;;;5130939;27;20058;-69
2024/01/12 11:10:11;;;;;;;27.95;11.23;;;;;;;;;;5130555;27;20055;-69
2024/01/12 11:12:40;;;;;;;20.80;8.90;;;;;;;;;;5130818;27;20047;-70
2024/01/12 11:15:08;;;;;;;21.60;9.55;;;;;;;;;;5130664;27;20051;-69
2024/01/12 11:17:41;;;;;;;21.08;8.88;;;;;;;;;;5130966;27;20043;-70
2024/01/12 11:20:10;;;;;;;19.58;8.85;;;;;;;;;;5130925;27;20637;-69
2024/01/12 11:22:44;;;;;;;24.48;10.35;;;;;;;;;;5130835;27;20050;-69
2024/01/12 11:25:12;;;;;;;21.55;9.35;;;;;;;;;;5130709;27;20078;-69
2024/01/12 11:27:48;;;;;;;19.98;9.43;;;;;;;;;;5130755;27;20053;-69
2024/01/12 11:30:25;;;;;;;20.00;8.95;;;;;;;;;;5130863;27;20123;-69
2024/01/12 11:33:03;;;;;;;18.27;8.57;;;;;;;;;;5130286;27;20090;-69
2024/01/12 11:35:31;;;;;;;22.10;8.93;;;;;;;;;;5130442;27;20545;-69
2024/01/12 11:38:02;;;;;;;18.27;9.30;;;;;;;;;;5130793;27;20047;-69
2024/01/12 11:40:29;;;;;;;18.23;8.43;;;;;;;;;;5130507;27;20141;-69
2024/01/12 11:42:58;;;;;;;14.27;7.22;;;;;;;;;;5130488;27;20047;-69
2024/01/12 11:45:27;;;;;;;15.75;7.88;;;;;;;;;;5130941;27;20047;-69
2024/01/12 11:47:54;;;;;;;16.00;7.65;;;;;;;;;;5130449;28;20043;-69
2024/01/12 11:50:24;;;;;;;16.23;8.00;;;;;;;;;;5130321;28;20092;-69
2024/01/12 11:52:56;;;;;;;;;;;;;;;;;;5130938;28;20054;-67
2024/01/12 11:55:23;;;;;;;18.10;7.80;;;;;;;;;;5130179;28;20018;-69
2024/01/12 11:57:53;;;;;;;18.75;8.80;;;;;;;;;;5130264;28;20572;-69
2024/01/12 12:00:20;;;;;;;19.05;9.60;;;;;;;;;;5130463;28;20487;-69
2024/01/12 12:02:48;;;;;;;21.23;10.07;;;;;;;;;;5130532;28;20043;-69
2024/01/12 12:05:22;;;;;;;19.20;8.95;;;;;;;;;;5130179;28;20044;-69
2024/01/12 12:07:49;;;;;;;18.15;9.13;;;;;;;;;;5129939;28;20130;-69
2024/01/12 12:10:16;;;;;;;18.20;8.48;;;;;;;;;;5129798;27;20689;-69
2024/01/12 12:12:52;;;;;;;20.05;8.95;;;;;;;;;;5134125;27;20044;-69
2024/01/12 12:15:19;;;;;;;14.88;7.82;;;;;;;;;;5134099;27;20510;-69
2024/01/12 12:17:47;;;;;;;15.50;7.75;;;;;;;;;;5134614;27;20043;-69
2024/01/12 12:20:15;;;;;;;19.38;8.38;;;;;;;;;;5134506;27;20043;-68
2024/01/12 12:22:46;;;;;;;17.42;7.38;;;;;;;;;;5134152;27;20393;-69
2024/01/12 12:25:16;;;;;;;15.00;7.47;;;;;;;;;;5133798;27;20046;-70
2024/01/12 12:27:46;;;;;;;16.63;8.13;;;;;;;;;;5134248;27;20043;-70
2024/01/12 12:30:16;;;;;;;15.82;8.73;;;;;;;;;;5133850;27;20296;-69
2024/01/12 12:32:47;;;;;;;15.02;6.75;;;;;;;;;;5134174;27;20047;-69
2024/01/12 12:35:19;;;;;;;12.88;6.53;;;;;;;;;;5133889;27;20441;-69
2024/01/12 12:37:47;;;;;;;14.55;7.30;;;;;;;;;;5134151;27;20100;-69
2024/01/12 12:40:15;;;;;;;12.80;6.47;;;;;;;;;;5133837;27;20043;-69
2024/01/12 12:42:44;;;;;;;13.38;6.50;;;;;;;;;;5133626;27;20487;-69
2024/01/12 12:45:15;;;;;;;11.45;5.53;;;;;;;;;;5133433;27;20046;-69
2024/01/12 12:47:42;;;;;;;12.35;6.30;;;;;;;;;;5133729;27;20047;-69
2024/01/12 12:50:10;;;;;;;11.93;5.82;;;;;;;;;;5133885;27;20130;-69
2024/01/12 12:52:37;;;;;;;11.77;5.72;;;;;;;;;;5115938;27;20569;-69
2024/01/12 12:55:05;;;;;;;12.27;5.60;;;;;;;;;;5134208;27;20402;-69
2024/01/12 12:57:32;;;;;;;10.00;5.38;;;;;;;;;;5133842;27;20473;-69
2024/01/12 12:59:59;;;;;;;10.52;5.47;;;;;;;;;;5133796;27;20051;-69
2024/01/12 13:02:27;;;;;;;10.68;5.18;;;;;;;;;;5133547;27;20043;-69
2024/01/12 13:04:54;;;;;;;11.18;5.15;;;;;;;;;;5133129;27;20050;-69
2024/01/12 13:07:21;;;;;;;11.55;5.78;;;;;;;;;;5133040;27;20098;-69
2024/01/12 13:09:49;;;;;;;9.75;4.95;;;;;;;;;;5133196;27;20053;-69
2024/01/12 13:12:19;;;;;;;8.15;4.20;;;;;;;;;;5133263;27;20058;-69
2024/01/12 13:14:45;;;;;;;10.77;5.18;;;;;;;;;;5133330;27;20046;-69
2024/01/12 13:17:13;;;;;;;9.52;5.10;;;;;;;;;;5133630;27;20047;-69
2024/01/12 13:19:39;;;;;;;9.07;4.85;;;;;;;;;;5132996;27;20129;-69
2024/01/12 13:22:06;;;;;;;9.63;5.03;;;;;;;;;;5132070;27;20047;-70
2024/01/12 13:24:34;;;;;;;9.73;4.55;;;;;;;;;;5132165;27;20043;-69
2024/01/12 13:27:01;;;;;;;9.32;4.88;;;;;;;;;;5133017;27;20082;-69
2024/01/12 13:29:28;;;;;;;8.85;4.70;;;;;;;;;;5132870;27;20050;-70
2024/01/12 13:31:55;;;;;;;8.98;4.40;;;;;;;;;;5132792;27;20134;-69
2024/01/12 13:34:22;;;;;;;9.68;5.03;;;;;;;;;;5132663;27;20047;-69
2024/01/12 13:36:49;;;;;;;11.93;5.43;;;;;;;;;;5132478;27;20055;-69
2024/01/12 13:39:16;;;;;;;9.80;5.10;;;;;;;;;;5132706;27;20390;-69
2024/01/12 13:41:43;;;;;;;10.88;4.75;;;;;;;;;;5132495;27;20047;-69
2024/01/12 13:44:10;;;;;;;8.27;4.50;;;;;;;;;;5132570;27;20073;-69
2024/01/12 13:46:38;;;;;;;8.73;4.13;;;;;;;;;;5132794;27;20047;-69
2024/01/12 13:49:05;;;;;;;10.30;4.97;;;;;;;;;;5132690;27;20047;-69
2024/01/12 13:51:32;;;;;;;10.48;4.80;;;;;;;;;;5132648;27;20054;-69
2024/01/12 13:53:59;;;;;;;9.23;4.95;;;;;;;;;;5132020;27;20045;-69
2024/01/12 13:56:26;;;;;;;11.45;5.68;;;;;;;;;;5132551;27;20047;-69
2024/01/12 13:58:53;;;;;;;10.23;4.30;;;;;;;;;;5132160;27;20130;-69
2024/01/12 14:01:20;;;;;;;8.27;4.40;;;;;;;;;;5132167;27;20050;-69
2024/01/12 14:03:47;;;;;;;13.20;4.95;;;;;;;;;;5132244;27;20050;-69
2024/01/12 14:06:14;;;;;;;8.88;4.45;;;;;;;;;;5131990;27;20410;-69
2024/01/12 14:08:45;;;;;;;11.85;5.40;;;;;;;;;;5131832;27;20053;-69
2024/01/12 14:11:12;;;;;;;8.95;4.63;;;;;;;;;;5132250;27;20091;-69
2024/01/12 14:13:39;;;;;;;8.82;4.20;;;;;;;;;;5131879;27;20047;-69
2024/01/12 14:16:06;;;;;;;8.52;4.53;;;;;;;;;;5132084;27;20504;-69
2024/01/12 14:18:33;;;;;;;7.80;3.88;;;;;;;;;;5131773;27;20050;-70
2024/01/12 14:21:00;;;;;;;7.78;4.30;;;;;;;;;;5131883;27;20054;-69
2024/01/12 14:23:27;;;;;;;7.22;4.28;;;;;;;;;;5131829;27;20046;-70
2024/01/12 14:25:54;;;;;;;10.25;5.20;;;;;;;;;;5131310;27;20039;-70
2024/01/12 14:28:22;;;;;;;7.32;4.00;;;;;;;;;;5131717;27;20455;-71
2024/01/12 14:30:59;;;;;;;8.10;4.20;;;;;;;;;;5131924;27;20046;-70